Happy Valentine's Day! 

Flight Track Log - Related Links

Times and Time Zones

All times are in EDT time to prevent confusion due to time zone crossing. See the N40BZ flight status page for this flight to view local times or setup timezone preferences in your user account.


Time Position Orientation Groundspeed Altitude Reporting Facility
EDT Latitude Longitude Course Direction KTS MPH feet Rate Location/Type
Fri 10:33:17 AM 40.1667 -75.2000 60° Northeast 123 142 1,800  Level Philadelphia TRACON
Fri 10:34:11 AM 40.1667 -75.1667 90° East 123 142 2,900 667 Climbing Philadelphia TRACON
Fri 10:35:05 AM 40.1833 -75.1167 66° East 169 194 3,000 45 Climbing Philadelphia TRACON
Fri 10:36:23 AM 40.1833 -75.0333 90° East 174 200 3,000 12 Level Philadelphia TRACON
Fri 10:38:00 AM 40.2333 -74.9501 57° Northeast  Level FlightAware Approximate
Fri 10:43:19 AM 40.2000 -74.6000 114° Southeast 173 199 3,100  Level New York TRACON
Fri 10:44:13 AM 40.2000 -74.5500 90° East 166 191 3,500 579 Climbing New York TRACON
Fri 10:45:00 AM 40.2025 -74.5174 95° East  Level FlightAware Approximate
Fri 10:45:13 AM 40.2000 -74.5000 90° East 159 183 4,200  Level New York TRACON
Fri 10:46:00 AM 40.1910 -74.4563 113° Southeast  Level FlightAware Approximate
Fri 10:46:19 AM 40.1833 -74.4333 108° East 163 188 5,000  Level New York TRACON
Fri 10:47:00 AM 40.1716 -74.3978 113° Southeast  Level FlightAware Approximate
Fri 10:47:13 AM 40.1667 -74.3833 114° Southeast 178 205 5,000  Level New York TRACON
Fri 10:48:00 AM 40.1521 -74.3394 114° Southeast  Level FlightAware Approximate
Fri 10:48:19 AM 40.1500 -74.3167 108° East 187 215 5,000  Level New York TRACON
Fri 10:49:19 AM 40.1333 -74.2500 108° East 185 213 5,000  Level New York TRACON
Fri 10:50:19 AM 40.1000 -74.2000 131° Southeast 180 207 5,000  Level New York TRACON
Fri 10:51:19 AM 40.1333 -74.1500 49° Northeast 177 204 5,000  Level New York TRACON
Fri 10:52:25 AM 40.1667 -74.1167 37° Northeast 170 196 5,000  Level New York TRACON
Fri 10:53:20 AM 40.2167 -74.0833 27° Northeast 173 199 5,000  Level New York TRACON
Fri 10:54:19 AM 40.2500 -74.0500 37° Northeast 169 194 5,000  Level New York TRACON
Fri 10:55:20 AM 40.3000 -74.0167 27° Northeast 169 194 5,000  Level New York TRACON
Fri 10:56:19 AM 40.3333 -74.0000 21° North 168 193 5,000  Level New York TRACON
Fri 10:57:19 AM 40.3667 -73.9667 37° Northeast 171 197 5,000 -200 Level New York TRACON
Fri 10:58:19 AM 40.4167 -73.9167 37° Northeast 179 206 4,600 -400 Descending New York TRACON
Fri 10:59:19 AM 40.4500 -73.8833 37° Northeast 182 209 4,200 -300 Descending New York TRACON
Fri 11:00:19 AM 40.4833 -73.8333 49° Northeast 171 197 4,000 -100 Descending New York TRACON
Fri 11:01:19 AM 40.5167 -73.8000 37° Northeast 164 189 4,000  Level New York TRACON
Fri 11:02:14 AM 40.5500 -73.7667 37° Northeast 165 190 4,000  Level New York TRACON
Fri 11:03:14 AM 40.5833 -73.7167 49° Northeast 166 191 4,000  Level New York TRACON
Fri 11:04:14 AM 40.6000 -73.6667 66° East 172 198 4,000  Level New York TRACON
Fri 11:05:14 AM 40.6167 -73.6000 72° East 170 196 4,000 -250 Level New York TRACON
Fri 11:06:14 AM 40.6333 -73.5333 72° East 186 214 3,500 -480 Descending New York TRACON
Fri 11:07:19 AM 40.6500 -73.4667 72° East 182 209 3,000 -250 Descending New York TRACON
Fri 11:08:14 AM 40.6500 -73.4167 90° East 168 193 3,000  Level New York TRACON
Fri 11:09:14 AM 40.6667 -73.3500 72° East 164 189 3,000  Level New York TRACON
Fri 11:10:14 AM 40.6667 -73.3000 90° East 167 192 3,000  Level New York TRACON
Fri 11:11:14 AM 40.6833 -73.2333 72° East 168 193 3,000  Level New York TRACON
Fri 11:12:14 AM 40.7000 -73.1833 66° East 169 194 3,000  Level New York TRACON
Fri 11:13:14 AM 40.7000 -73.1167 90° East 166 191 3,000  Level New York TRACON
Fri 11:14:14 AM 40.7167 -73.0667 66° East 169 194 3,000  Level New York TRACON
Fri 11:15:14 AM 40.7333 -73.0000 72° East 169 194 3,000  Level New York TRACON
Fri 11:16:14 AM 40.7500 -72.9500 66° East 168 193 3,000  Level New York TRACON
Fri 11:17:14 AM 40.7667 -72.8833 72° East 169 194 3,000  Level New York TRACON
Fri 11:18:19 AM 40.7833 -72.8167 72° East 172 198 3,000  Level New York TRACON
Fri 11:19:19 AM 40.8000 -72.7667 66° East 168 193 3,000  Level New York TRACON
Fri 11:20:20 AM 40.8167 -72.7000 72° East 168 193 3,000  Level New York TRACON
Fri 11:21:20 AM 40.8333 -72.6500 66° East 169 194 3,000  Level New York TRACON
Fri 11:22:20 AM 40.8500 -72.5833 72° East 168 193 3,000  Level New York TRACON
Fri 11:24:20 AM 40.8667 -72.4667 79° East 171 197 3,000  Level New York TRACON
Fri 11:25:20 AM 40.8667 -72.4000 90° East 172 198 3,000  Level New York TRACON
Fri 11:27:00 AM 40.9284 -72.2932 56° Northeast  Level FlightAware Approximate
Fri 11:34:00 AM 40.9500 -72.2500 56° Northeast  Level FlightAware Approximate
Fri 11:35:00 AM 40.9594 -72.2517 56° Northeast  Level Estimated

Login

Don't have an account? Register now (free) for customized features, flight alerts, and more!